createdAt,value
2022-09-27T00:01:53.486Z,10.80
2022-09-27T00:04:20.346Z,10.70
2022-09-27T00:06:47.140Z,10.60
2022-09-27T00:09:13.964Z,10.60
2022-09-27T00:11:44.640Z,10.50
2022-09-27T00:14:13.331Z,10.50
2022-09-27T00:16:41.391Z,10.40
2022-09-27T00:19:15.688Z,10.30
2022-09-27T00:21:44.089Z,10.20
2022-09-27T00:24:16.195Z,10.10
2022-09-27T00:26:43.331Z,10.10
2022-09-27T00:29:10.920Z,10.10
2022-09-27T00:31:38.153Z,10.10
2022-09-27T00:34:06.990Z,10.00
2022-09-27T00:36:34.714Z,10.10
2022-09-27T00:39:02.017Z,10.00
2022-09-27T00:41:32.359Z,9.90
2022-09-27T00:44:05.434Z,9.90
2022-09-27T00:46:32.112Z,9.90
2022-09-27T00:49:25.214Z,10.00
2022-09-27T00:51:58.410Z,9.90
2022-09-27T00:54:28.070Z,9.90
2022-09-27T00:56:55.474Z,9.90
2022-09-27T00:59:30.268Z,9.90
2022-09-27T01:01:57.441Z,9.90
2022-09-27T01:04:28.057Z,9.90
2022-09-27T01:06:55.066Z,10.00
2022-09-27T01:09:22.788Z,9.90
2022-09-27T01:12:20.681Z,10.00
2022-09-27T01:15:06.204Z,10.00
2022-09-27T01:17:52.582Z,9.90
2022-09-27T01:20:25.434Z,9.80
2022-09-27T01:23:04.390Z,9.80
2022-09-27T01:25:55.754Z,9.80
2022-09-27T01:28:54.526Z,9.80
2022-09-27T01:31:27.449Z,9.90
2022-09-27T01:34:02.549Z,9.90
2022-09-27T01:36:38.197Z,9.80
2022-09-27T01:39:14.271Z,9.80
2022-09-27T01:42:12.665Z,9.80
2022-09-27T01:44:47.879Z,9.70
2022-09-27T01:47:19.113Z,9.80
2022-09-27T01:49:52.196Z,9.80
2022-09-27T01:52:20.524Z,9.80
2022-09-27T01:54:52.943Z,9.80
2022-09-27T01:57:38.724Z,9.80
2022-09-27T02:00:11.333Z,9.70
2022-09-27T02:03:00.461Z,9.80
2022-09-27T02:05:33.621Z,9.80
2022-09-27T02:08:05.365Z,9.70
2022-09-27T02:10:39.499Z,9.60
2022-09-27T02:13:27.663Z,9.70
2022-09-27T02:16:08.759Z,9.70
2022-09-27T02:18:53.574Z,9.70
2022-09-27T02:21:25.444Z,9.70
2022-09-27T02:24:00.869Z,9.80
2022-09-27T02:26:41.789Z,9.70
2022-09-27T02:29:20.351Z,9.70
2022-09-27T02:31:47.277Z,9.70
2022-09-27T02:34:22.436Z,9.70
2022-09-27T02:36:50.449Z,9.70
2022-09-27T02:39:18.494Z,9.70
2022-09-27T02:41:45.397Z,9.70
2022-09-27T02:44:15.020Z,9.70
2022-09-27T02:47:06.921Z,9.60
2022-09-27T02:49:54.463Z,9.60
2022-09-27T02:52:42.420Z,9.60
2022-09-27T02:55:30.882Z,9.60
2022-09-27T02:58:12.184Z,9.70
2022-09-27T03:01:33.111Z,9.70
2022-09-27T03:04:15.448Z,9.70
2022-09-27T03:06:46.011Z,9.70
2022-09-27T03:09:24.059Z,9.70
2022-09-27T03:11:51.479Z,9.60
2022-09-27T03:14:18.280Z,9.60
2022-09-27T03:16:45.102Z,9.50
2022-09-27T03:19:11.884Z,9.60
2022-09-27T03:21:39.269Z,9.60
2022-09-27T03:24:06.241Z,9.60
2022-09-27T03:26:33.088Z,9.60
2022-09-27T03:28:59.931Z,9.60
2022-09-27T03:31:26.849Z,9.60
2022-09-27T03:33:53.817Z,9.50
2022-09-27T03:36:20.595Z,9.50
2022-09-27T03:38:47.375Z,9.50
2022-09-27T03:41:14.182Z,9.50
2022-09-27T03:43:41.190Z,9.50
2022-09-27T03:46:08.027Z,9.50
2022-09-27T03:48:34.908Z,9.50
2022-09-27T03:51:01.791Z,9.50
2022-09-27T03:53:28.582Z,9.40
2022-09-27T03:55:55.696Z,9.50
2022-09-27T03:58:22.482Z,9.40
2022-09-27T04:00:49.606Z,9.40
2022-09-27T04:03:17.639Z,9.40
2022-09-27T04:05:44.436Z,9.50
2022-09-27T04:08:11.941Z,9.40
2022-09-27T04:10:39.061Z,9.40
2022-09-27T04:13:06.148Z,9.40
2022-09-27T04:15:33.058Z,9.50
2022-09-27T04:17:59.933Z,9.40
2022-09-27T04:20:26.782Z,9.30
2022-09-27T04:22:53.565Z,9.30
2022-09-27T04:25:20.392Z,9.30
2022-09-27T04:27:48.349Z,9.30
2022-09-27T04:30:15.924Z,9.20
2022-09-27T04:32:44.353Z,9.20
2022-09-27T04:35:33.498Z,9.10
2022-09-27T04:38:00.659Z,9.20
2022-09-27T04:40:27.655Z,9.10
2022-09-27T04:42:55.400Z,9.10
2022-09-27T04:45:22.302Z,9.10
2022-09-27T04:47:50.737Z,9.10
2022-09-27T04:50:18.562Z,9.10
2022-09-27T04:52:49.637Z,9.00
2022-09-27T04:55:16.486Z,9.10
2022-09-27T04:57:43.302Z,9.10
2022-09-27T05:00:10.597Z,9.10
2022-09-27T05:02:37.471Z,9.10
2022-09-27T05:05:04.549Z,9.00
2022-09-27T05:07:33.546Z,9.10
2022-09-27T05:10:00.616Z,9.10
2022-09-27T05:12:27.398Z,9.10
2022-09-27T05:14:54.644Z,9.00
2022-09-27T05:17:22.395Z,9.00
2022-09-27T05:19:49.860Z,8.90
2022-09-27T05:22:17.011Z,9.00
2022-09-27T05:24:43.919Z,9.00
2022-09-27T05:27:14.566Z,9.10
2022-09-27T05:29:42.093Z,9.00
2022-09-27T05:32:08.917Z,9.00
2022-09-27T05:34:35.747Z,9.00
2022-09-27T05:37:02.583Z,8.90
2022-09-27T05:39:29.613Z,9.00
2022-09-27T05:41:57.550Z,8.90
2022-09-27T05:44:26.010Z,9.00
2022-09-27T05:46:52.997Z,9.00
2022-09-27T05:49:20.703Z,9.00
2022-09-27T05:51:47.708Z,9.00
2022-09-27T05:54:14.679Z,9.10
2022-09-27T05:56:41.599Z,9.00
2022-09-27T05:59:08.500Z,9.00
2022-09-27T06:01:35.761Z,9.00
2022-09-27T06:04:04.806Z,9.00
2022-09-27T06:06:34.258Z,9.10
2022-09-27T06:09:01.632Z,9.10
2022-09-27T06:11:28.854Z,9.10
2022-09-27T06:13:58.833Z,9.00
2022-09-27T06:16:25.775Z,9.10
2022-09-27T06:18:52.587Z,9.10
2022-09-27T06:21:19.634Z,9.20
2022-09-27T06:23:50.634Z,9.30
2022-09-27T06:26:22.031Z,9.30
2022-09-27T06:28:51.210Z,9.30
2022-09-27T06:31:18.085Z,9.20
2022-09-27T06:33:46.035Z,9.30
2022-09-27T06:36:13.343Z,9.30
2022-09-27T06:38:40.281Z,9.30
2022-09-27T06:41:09.280Z,9.30
2022-09-27T06:43:37.082Z,9.40
2022-09-27T06:46:04.764Z,9.60
2022-09-27T06:48:37.578Z,9.50
2022-09-27T06:51:04.444Z,9.60
2022-09-27T06:53:31.541Z,9.70
2022-09-27T06:56:00.453Z,9.80
2022-09-27T06:58:47.236Z,9.80
2022-09-27T07:01:14.788Z,9.80
2022-09-27T07:03:44.521Z,10.00
2022-09-27T07:06:23.837Z,10.10
2022-09-27T07:08:52.368Z,10.10
2022-09-27T07:11:19.818Z,10.10
2022-09-27T07:13:46.638Z,10.00
2022-09-27T07:16:14.321Z,10.10
2022-09-27T07:18:42.250Z,10.00
2022-09-27T07:21:09.342Z,10.00
2022-09-27T07:23:37.488Z,10.10
2022-09-27T07:26:06.951Z,10.10
2022-09-27T07:28:34.574Z,10.00
2022-09-27T07:31:02.749Z,9.90
2022-09-27T07:33:31.352Z,10.00
2022-09-27T07:35:58.197Z,10.00
2022-09-27T07:38:25.019Z,9.90
2022-09-27T07:40:52.080Z,10.10
2022-09-27T07:43:19.671Z,10.10
2022-09-27T07:45:47.008Z,10.30
2022-09-27T07:48:16.514Z,10.40
2022-09-27T07:50:43.482Z,10.30
2022-09-27T07:53:13.357Z,10.50
2022-09-27T07:55:41.081Z,10.50
2022-09-27T07:58:10.561Z,10.40
2022-09-27T08:00:38.334Z,10.50
2022-09-27T08:03:10.948Z,10.50
2022-09-27T08:05:38.002Z,10.50
2022-09-27T08:08:05.020Z,10.50
2022-09-27T08:10:33.524Z,10.60
2022-09-27T08:13:04.651Z,10.60
2022-09-27T08:15:32.536Z,10.70
2022-09-27T08:17:59.523Z,10.80
2022-09-27T08:20:26.368Z,10.80
2022-09-27T08:22:53.268Z,10.80
2022-09-27T08:25:22.530Z,10.70
2022-09-27T08:27:57.167Z,10.70
2022-09-27T08:30:25.070Z,10.80
2022-09-27T08:32:59.443Z,10.80
2022-09-27T08:35:28.264Z,11.00
2022-09-27T08:37:56.714Z,11.10
2022-09-27T08:40:27.685Z,11.00
2022-09-27T08:43:11.804Z,11.00
2022-09-27T08:45:49.000Z,11.00
2022-09-27T08:48:17.808Z,11.10
2022-09-27T08:50:46.775Z,11.20
2022-09-27T08:53:30.682Z,11.20
2022-09-27T08:55:58.958Z,11.20
2022-09-27T08:58:41.086Z,11.10
2022-09-27T09:01:14.733Z,11.00
2022-09-27T09:03:50.023Z,11.20
2022-09-27T09:06:32.490Z,11.20
2022-09-27T09:09:30.403Z,11.20
2022-09-27T09:12:29.154Z,11.20
2022-09-27T09:15:55.963Z,11.20
2022-09-27T09:18:22.767Z,11.30
2022-09-27T09:21:14.395Z,11.40
2022-09-27T09:24:03.024Z,11.40
2022-09-27T09:26:57.344Z,11.40
2022-09-27T09:29:50.941Z,11.50
2022-09-27T09:32:55.103Z,11.60
2022-09-27T09:35:34.653Z,11.60
2022-09-27T09:38:12.845Z,11.80
2022-09-27T09:40:46.104Z,11.80
2022-09-27T09:43:26.249Z,11.80
2022-09-27T09:46:03.173Z,12.00
2022-09-27T09:48:56.309Z,12.20
2022-09-27T09:51:32.466Z,12.20
2022-09-27T09:54:02.811Z,12.20
2022-09-27T09:56:38.544Z,12.10
2022-09-27T09:59:15.477Z,12.30
2022-09-27T10:01:45.232Z,12.60
2022-09-27T10:04:20.760Z,12.70
2022-09-27T10:06:48.504Z,12.80
2022-09-27T10:09:17.801Z,12.50
2022-09-27T10:11:46.127Z,12.40
2022-09-27T10:14:16.012Z,12.30
2022-09-27T10:16:48.139Z,12.20
2022-09-27T10:19:20.697Z,12.20
2022-09-27T10:21:51.038Z,12.30
2022-09-27T10:24:19.647Z,12.40
2022-09-27T10:26:49.539Z,12.40
2022-09-27T10:29:31.592Z,12.30
2022-09-27T10:32:04.642Z,12.40
2022-09-27T10:34:41.291Z,12.40
2022-09-27T10:37:11.804Z,12.50
2022-09-27T10:39:41.470Z,12.40
2022-09-27T10:42:33.826Z,12.30
2022-09-27T10:45:27.510Z,12.30
2022-09-27T10:47:54.473Z,12.20
2022-09-27T10:50:49.531Z,12.40
2022-09-27T10:53:20.433Z,12.40
2022-09-27T10:55:50.145Z,12.40
2022-09-27T10:58:37.901Z,12.40
2022-09-27T11:01:08.447Z,12.20
2022-09-27T11:03:47.927Z,12.10
2022-09-27T11:06:33.333Z,12.10
2022-09-27T11:09:16.814Z,12.20
2022-09-27T11:11:45.330Z,12.20
2022-09-27T11:14:20.178Z,12.30
2022-09-27T11:17:08.757Z,12.20
2022-09-27T11:19:44.179Z,12.30
2022-09-27T11:22:58.750Z,12.30
2022-09-27T11:25:44.339Z,12.20
2022-09-27T11:28:36.580Z,12.20
2022-09-27T11:31:22.262Z,12.30
2022-09-27T11:33:52.004Z,12.40
2022-09-27T11:36:54.438Z,12.40
2022-09-27T11:39:33.249Z,12.40
2022-09-27T11:42:27.734Z,12.40
2022-09-27T11:48:14.275Z,12.30
2022-09-27T11:50:44.167Z,12.50
2022-09-27T11:53:32.468Z,12.20
2022-09-27T11:56:23.403Z,12.20
2022-09-27T11:59:28.528Z,12.20
2022-09-27T12:16:57.831Z,12.40
2022-09-27T12:19:32.673Z,12.40
2022-09-27T12:22:04.697Z,12.60
2022-09-27T12:24:34.488Z,12.50
2022-09-27T12:27:10.441Z,12.40
2022-09-27T12:29:41.942Z,12.30
2022-09-27T12:35:07.181Z,12.30
2022-09-27T12:37:37.255Z,12.30
2022-09-27T12:40:15.861Z,12.60
2022-09-27T12:42:49.236Z,12.40
2022-09-27T12:45:21.515Z,12.50
2022-09-27T12:48:23.151Z,12.50
2022-09-27T12:51:03.875Z,12.40
2022-09-27T12:53:44.186Z,12.50
2022-09-27T12:56:14.039Z,12.40
2022-09-27T12:58:55.101Z,12.50
2022-09-27T13:01:52.371Z,12.50
2022-09-27T13:04:45.455Z,12.70
2022-09-27T13:07:24.201Z,12.80
2022-09-27T13:10:01.319Z,12.60
2022-09-27T13:12:30.324Z,12.40
2022-09-27T13:15:07.689Z,12.60
2022-09-27T13:17:37.638Z,12.70
2022-09-27T13:20:35.463Z,13.00
2022-09-27T13:23:05.511Z,13.20
2022-09-27T13:25:55.982Z,13.20
2022-09-27T13:28:29.349Z,13.00
2022-09-27T13:30:57.625Z,12.60
2022-09-27T13:33:49.334Z,12.70
2022-09-27T13:36:24.977Z,12.70
2022-09-27T13:39:11.570Z,12.40
2022-09-27T13:41:41.263Z,12.20
2022-09-27T13:44:26.699Z,11.90
2022-09-27T13:46:56.298Z,11.80
2022-09-27T13:49:29.464Z,11.70
2022-09-27T13:52:03.449Z,11.50
2022-09-27T13:54:56.718Z,11.30
2022-09-27T13:58:03.361Z,11.30
2022-09-27T14:00:41.889Z,11.20
2022-09-27T14:03:11.732Z,11.10
2022-09-27T14:05:51.720Z,10.80
2022-09-27T14:08:43.887Z,10.90
2022-09-27T14:11:14.132Z,10.90
2022-09-27T14:13:43.114Z,10.90
2022-09-27T14:16:15.322Z,11.00
2022-09-27T14:18:57.664Z,11.20
2022-09-27T14:21:40.572Z,11.30
2022-09-27T14:24:43.615Z,11.40
2022-09-27T14:27:25.873Z,11.80
2022-09-27T14:29:57.011Z,12.50
2022-09-27T14:32:34.624Z,13.50
2022-09-27T14:35:29.378Z,12.80
2022-09-27T14:37:56.284Z,13.10
2022-09-27T14:40:23.412Z,12.70
2022-09-27T14:42:54.838Z,12.30
2022-09-27T14:45:36.620Z,12.40
2022-09-27T14:48:27.933Z,12.20
2022-09-27T14:51:06.160Z,12.40
2022-09-27T14:53:37.236Z,12.10
2022-09-27T14:56:07.145Z,12.00
2022-09-27T14:58:47.142Z,12.10
2022-09-27T15:01:20.329Z,12.10
2022-09-27T15:03:51.239Z,12.40
2022-09-27T15:06:19.221Z,12.40
2022-09-27T15:08:49.661Z,12.50
2022-09-27T15:11:19.395Z,13.00
2022-09-27T15:13:51.274Z,13.00
2022-09-27T15:16:20.923Z,12.50
2022-09-27T15:18:50.497Z,12.30
2022-09-27T15:21:35.467Z,12.20
2022-09-27T15:24:03.433Z,12.00
2022-09-27T15:26:45.995Z,12.00
2022-09-27T15:29:21.140Z,12.00
2022-09-27T15:32:05.597Z,12.00
2022-09-27T15:34:34.430Z,11.90
2022-09-27T15:37:06.603Z,11.80
2022-09-27T15:39:34.683Z,10.90
2022-09-27T15:42:13.376Z,10.50
2022-09-27T15:44:43.033Z,9.90
2022-09-27T15:47:32.053Z,9.90
2022-09-27T15:49:59.463Z,9.90
2022-09-27T15:52:43.269Z,10.00
2022-09-27T15:55:14.475Z,9.80
2022-09-27T15:57:42.192Z,9.60
2022-09-27T16:00:15.012Z,9.40
2022-09-27T16:02:41.778Z,9.20
2022-09-27T16:05:08.683Z,9.30
2022-09-27T16:07:35.867Z,9.40
2022-09-27T16:10:05.830Z,9.30
2022-09-27T16:12:32.633Z,9.40
2022-09-27T16:14:59.420Z,9.50
2022-09-27T16:17:26.174Z,9.50
2022-09-27T16:19:52.910Z,9.50
2022-09-27T16:22:19.677Z,9.60
2022-09-27T16:24:49.812Z,9.60
2022-09-27T16:27:27.533Z,9.70
2022-09-27T16:29:54.734Z,9.70
2022-09-27T16:32:21.631Z,9.60
2022-09-27T16:34:48.476Z,9.70
2022-09-27T16:37:15.404Z,9.50
2022-09-27T16:39:42.127Z,9.40
2022-09-27T16:42:10.048Z,9.50
2022-09-27T16:44:36.971Z,9.50
2022-09-27T16:47:04.314Z,9.50
2022-09-27T16:49:50.098Z,9.60
2022-09-27T16:52:16.878Z,9.50
2022-09-27T16:54:43.616Z,9.50
2022-09-27T16:57:10.520Z,9.40
2022-09-27T16:59:37.507Z,9.30
2022-09-27T17:02:05.458Z,9.30
2022-09-27T17:04:32.421Z,9.10
2022-09-27T17:06:59.348Z,9.20
2022-09-27T17:09:26.094Z,9.10
2022-09-27T17:11:52.896Z,9.10
2022-09-27T17:14:19.759Z,9.20
2022-09-27T17:16:47.305Z,9.10
2022-09-27T17:19:15.568Z,9.10
2022-09-27T17:21:43.543Z,9.00
2022-09-27T17:24:10.604Z,9.00
2022-09-27T17:26:38.313Z,9.00
2022-09-27T17:29:06.062Z,9.10
2022-09-27T17:31:34.831Z,9.00
2022-09-27T17:34:02.590Z,9.10
2022-09-27T17:36:32.841Z,9.00
2022-09-27T17:38:59.683Z,9.10
2022-09-27T17:41:28.346Z,9.10
2022-09-27T17:43:57.908Z,9.00
2022-09-27T17:46:33.930Z,9.00
2022-09-27T17:49:19.574Z,9.00
2022-09-27T17:51:48.737Z,9.10
2022-09-27T17:54:16.852Z,9.20
2022-09-27T17:56:44.463Z,9.20
2022-09-27T17:59:12.617Z,9.20
2022-09-27T18:01:40.110Z,9.10
2022-09-27T18:04:09.806Z,9.20
2022-09-27T18:06:41.950Z,9.20
2022-09-27T18:09:10.989Z,9.30
2022-09-27T18:11:38.907Z,9.20
2022-09-27T18:14:06.438Z,9.20
2022-09-27T18:16:36.973Z,9.30
2022-09-27T18:19:07.933Z,9.30
2022-09-27T18:21:35.469Z,9.30
2022-09-27T18:24:06.387Z,9.30
2022-09-27T18:26:36.737Z,9.30
2022-09-27T18:31:32.738Z,9.20
2022-09-27T18:33:59.964Z,9.20
2022-09-27T18:36:27.955Z,9.20
2022-09-27T18:38:57.659Z,9.20
2022-09-27T18:41:26.192Z,9.30
2022-09-27T18:44:01.879Z,9.30
2022-09-27T18:46:35.481Z,9.30
2022-09-27T18:49:09.418Z,9.30
2022-09-27T18:51:37.744Z,9.30
2022-09-27T18:54:12.962Z,9.30
2022-09-27T18:56:41.059Z,9.20
2022-09-27T18:59:09.241Z,9.20
2022-09-27T19:01:41.734Z,9.20
2022-09-27T19:04:09.762Z,9.20
2022-09-27T19:06:38.256Z,9.20
2022-09-27T19:09:06.787Z,9.30
2022-09-27T19:11:34.265Z,9.20
2022-09-27T19:14:01.950Z,9.20
2022-09-27T19:16:29.866Z,9.20
2022-09-27T19:18:57.276Z,9.10
2022-09-27T19:21:26.914Z,9.20
2022-09-27T19:23:54.648Z,9.20
2022-09-27T19:26:23.739Z,9.20
2022-09-27T19:28:51.492Z,9.20
2022-09-27T19:31:26.432Z,9.20
2022-09-27T19:33:59.074Z,9.20
2022-09-27T19:36:27.645Z,9.10
2022-09-27T19:38:56.382Z,9.00
2022-09-27T19:41:23.279Z,9.00
2022-09-27T19:43:54.168Z,9.00
2022-09-27T19:46:22.810Z,9.00
2022-09-27T19:48:50.964Z,8.90
2022-09-27T19:51:24.202Z,8.80
2022-09-27T19:53:52.375Z,8.80
2022-09-27T19:56:20.037Z,8.70
2022-09-27T19:58:47.174Z,8.70
2022-09-27T20:01:24.966Z,8.70
2022-09-27T20:03:53.488Z,8.60
2022-09-27T20:06:21.632Z,8.70
2022-09-27T20:08:48.774Z,8.60
2022-09-27T20:11:21.572Z,8.50
2022-09-27T20:13:49.810Z,8.60
2022-09-27T20:16:19.957Z,8.50
2022-09-27T20:18:49.004Z,8.60
2022-09-27T20:21:17.765Z,8.60
2022-09-27T20:23:47.970Z,8.50
2022-09-27T20:26:16.892Z,8.50
2022-09-27T20:28:46.446Z,8.60
2022-09-27T20:31:15.061Z,8.70
2022-09-27T20:33:42.164Z,8.80
2022-09-27T20:36:12.644Z,8.90
2022-09-27T20:38:44.772Z,9.00
2022-09-27T20:41:14.199Z,9.10
2022-09-27T20:43:40.950Z,9.10
2022-09-27T20:46:11.138Z,9.20
2022-09-27T20:48:41.088Z,9.20
2022-09-27T20:51:08.427Z,9.20
2022-09-27T20:53:35.196Z,9.30
2022-09-27T20:56:04.966Z,9.30
2022-09-27T20:58:32.621Z,9.30
2022-09-27T21:01:06.740Z,9.40
2022-09-27T21:03:34.567Z,9.40
2022-09-27T21:06:01.476Z,9.40
2022-09-27T21:08:34.029Z,9.40
2022-09-27T21:11:09.521Z,9.40
2022-09-27T21:13:38.708Z,9.40
2022-09-27T21:16:08.276Z,9.40
2022-09-27T21:18:35.933Z,9.40
2022-09-27T21:21:10.669Z,9.40
2022-09-27T21:23:43.464Z,9.50
2022-09-27T21:26:13.865Z,9.50
2022-09-27T21:28:43.197Z,9.50
2022-09-27T21:31:18.863Z,9.40
2022-09-27T21:33:50.623Z,9.50
2022-09-27T21:36:17.390Z,9.50
2022-09-27T21:38:44.193Z,9.50
2022-09-27T21:41:14.676Z,9.60
2022-09-27T21:43:43.005Z,9.50
2022-09-27T21:46:16.161Z,9.50
2022-09-27T21:48:45.296Z,9.50
2022-09-27T21:51:20.997Z,9.40
2022-09-27T21:54:07.906Z,9.40
2022-09-27T21:56:37.561Z,9.50
2022-09-27T21:59:05.653Z,9.50
2022-09-27T22:01:34.083Z,9.40
2022-09-27T22:04:02.265Z,9.40
2022-09-27T22:06:32.155Z,9.30
2022-09-27T22:09:00.671Z,9.30
2022-09-27T22:11:33.631Z,9.30
2022-09-27T22:14:00.627Z,9.20
2022-09-27T22:16:30.163Z,9.20
2022-09-27T22:18:57.889Z,9.20
2022-09-27T22:21:29.853Z,9.20
2022-09-27T22:23:58.530Z,9.20
2022-09-27T22:26:28.046Z,9.10
2022-09-27T22:28:54.952Z,9.00
2022-09-27T22:31:23.290Z,9.00
2022-09-27T22:33:59.853Z,9.10
2022-09-27T22:36:28.082Z,9.20
2022-09-27T22:38:55.727Z,9.20
2022-09-27T22:41:23.995Z,9.10
2022-09-27T22:43:53.502Z,9.10
2022-09-27T22:46:21.333Z,9.10
2022-09-27T22:48:49.740Z,9.00
2022-09-27T22:51:17.421Z,9.00
2022-09-27T22:53:44.386Z,9.00
2022-09-27T22:56:14.892Z,9.10
2022-09-27T22:58:44.876Z,9.10
2022-09-27T23:01:20.684Z,9.00
2022-09-27T23:03:49.210Z,9.10
2022-09-27T23:06:17.149Z,9.00
2022-09-27T23:08:44.345Z,9.10
2022-09-27T23:11:22.359Z,9.10
2022-09-27T23:13:50.562Z,9.10
2022-09-27T23:16:25.886Z,9.10
2022-09-27T23:18:57.048Z,9.20
2022-09-27T23:21:25.938Z,9.10
2022-09-27T23:23:55.103Z,9.00
2022-09-27T23:26:26.612Z,9.10
2022-09-27T23:29:01.224Z,9.10
2022-09-27T23:31:30.657Z,9.20
2022-09-27T23:33:59.197Z,9.10
2022-09-27T23:36:27.577Z,9.10
2022-09-27T23:38:57.732Z,9.10
2022-09-27T23:41:24.565Z,9.10
2022-09-27T23:43:51.564Z,9.20
2022-09-27T23:46:18.638Z,9.20
2022-09-27T23:48:46.123Z,9.20
2022-09-27T23:51:13.015Z,9.10
2022-09-27T23:53:40.681Z,9.10
2022-09-27T23:56:10.522Z,9.10
2022-09-27T23:58:39.952Z,9.10
